createdAt,value
2019-03-15T00:02:43.567Z,9.42
2019-03-15T00:07:49.086Z,9.63
2019-03-15T00:12:54.576Z,9.83
2019-03-15T00:18:00.136Z,10.00
2019-03-15T00:23:05.866Z,10.12
2019-03-15T00:28:11.361Z,10.22
2019-03-15T00:33:16.934Z,10.34
2019-03-15T00:38:22.487Z,10.44
2019-03-15T00:43:28.069Z,10.51
2019-03-15T00:48:33.647Z,10.57
2019-03-15T00:53:39.206Z,10.60
2019-03-15T00:58:44.752Z,10.57
2019-03-15T01:03:50.340Z,10.49
2019-03-15T01:08:55.922Z,10.40
2019-03-15T01:14:01.493Z,10.36
2019-03-15T01:19:07.040Z,10.30
2019-03-15T01:24:12.512Z,10.27
2019-03-15T01:29:18.025Z,10.31
2019-03-15T01:34:23.599Z,10.32
2019-03-15T01:39:29.092Z,10.31
2019-03-15T01:44:34.621Z,10.28
2019-03-15T01:49:40.145Z,10.32
2019-03-15T01:54:45.657Z,10.39
2019-03-15T01:59:51.230Z,10.42
2019-03-15T02:04:57.627Z,10.31
2019-03-15T02:10:03.201Z,10.18
2019-03-15T02:15:09.708Z,10.07
2019-03-15T02:20:15.207Z,10.01
2019-03-15T02:25:20.719Z,9.97
2019-03-15T02:30:26.304Z,9.93
2019-03-15T02:35:31.834Z,9.91
2019-03-15T02:40:38.224Z,9.95
2019-03-15T02:45:43.835Z,10.04
2019-03-15T02:50:49.481Z,10.15
2019-03-15T02:55:55.004Z,10.23
2019-03-15T03:01:00.520Z,10.32
2019-03-15T03:06:06.045Z,10.41
2019-03-15T03:11:11.630Z,10.45
2019-03-15T03:16:18.558Z,10.45
2019-03-15T03:21:24.182Z,10.42
2019-03-15T03:26:29.633Z,10.38
2019-03-15T03:31:35.143Z,10.33
2019-03-15T03:36:40.592Z,10.32
2019-03-15T03:41:46.084Z,10.32
2019-03-15T03:46:52.523Z,10.36
2019-03-15T03:51:58.285Z,10.39
2019-03-15T03:57:03.767Z,10.43
2019-03-15T04:02:09.289Z,10.46
2019-03-15T04:07:14.831Z,10.46
2019-03-15T04:12:20.420Z,10.48
2019-03-15T04:17:25.890Z,10.50
2019-03-15T04:22:31.423Z,10.53
2019-03-15T04:27:36.881Z,10.54
2019-03-15T04:32:42.517Z,10.57
2019-03-15T04:37:48.060Z,10.59
2019-03-15T04:42:53.611Z,10.63
2019-03-15T04:47:59.247Z,10.67
2019-03-15T04:53:04.766Z,10.67
2019-03-15T04:58:10.228Z,10.66
2019-03-15T05:03:15.731Z,10.66
2019-03-15T05:08:21.218Z,10.64
2019-03-15T05:13:26.693Z,10.63
2019-03-15T05:18:32.192Z,10.63
2019-03-15T05:23:37.745Z,10.62
2019-03-15T05:28:43.247Z,10.62
2019-03-15T05:33:48.745Z,10.64
2019-03-15T05:38:59.651Z,10.65
2019-03-15T05:44:05.379Z,10.66
2019-03-15T05:49:10.891Z,10.69
2019-03-15T05:54:16.413Z,10.71
2019-03-15T05:59:21.954Z,10.73
2019-03-15T06:04:27.492Z,10.77
2019-03-15T06:09:32.986Z,10.83
2019-03-15T06:14:38.534Z,10.88
2019-03-15T06:19:44.050Z,10.93
2019-03-15T06:24:49.604Z,10.97
2019-03-15T06:29:55.130Z,11.01
2019-03-15T06:35:00.650Z,11.07
2019-03-15T06:40:06.341Z,11.11
2019-03-15T06:45:11.934Z,11.14
2019-03-15T06:50:17.452Z,11.21
2019-03-15T06:55:22.983Z,11.26
2019-03-15T07:00:28.510Z,11.32
2019-03-15T07:05:33.999Z,11.41
2019-03-15T07:10:39.499Z,11.49
2019-03-15T07:15:45.075Z,11.50
2019-03-15T07:20:50.687Z,11.48
2019-03-15T07:25:56.588Z,11.46
2019-03-15T07:31:02.078Z,11.43
2019-03-15T07:36:07.634Z,11.44
2019-03-15T07:41:13.098Z,11.48
2019-03-15T07:46:18.806Z,11.53
2019-03-15T07:51:24.288Z,11.59
2019-03-15T07:56:29.786Z,11.64
2019-03-15T08:01:35.285Z,11.66
2019-03-15T08:06:40.796Z,11.66
2019-03-15T08:11:46.290Z,11.70
2019-03-15T08:16:51.780Z,11.77
2019-03-15T08:21:57.348Z,11.83
2019-03-15T08:27:02.804Z,11.93
2019-03-15T08:32:08.319Z,12.12
2019-03-15T08:37:13.811Z,12.25
2019-03-15T08:42:19.273Z,12.37
2019-03-15T08:47:24.845Z,12.54
2019-03-15T08:52:30.349Z,12.63
2019-03-15T08:57:36.024Z,12.73
2019-03-15T09:02:41.547Z,12.91
2019-03-15T09:07:47.076Z,13.09
2019-03-15T09:12:52.658Z,13.28
2019-03-15T09:17:58.218Z,13.43
2019-03-15T09:23:03.899Z,13.59
2019-03-15T09:28:09.397Z,13.82
2019-03-15T09:33:14.956Z,14.08
2019-03-15T09:38:20.671Z,14.29
2019-03-15T09:43:26.177Z,14.47
2019-03-15T09:48:31.689Z,14.58
2019-03-15T09:53:37.224Z,14.70
2019-03-15T09:58:42.846Z,14.78
2019-03-15T10:03:48.317Z,14.86
2019-03-15T10:08:53.769Z,14.97
2019-03-15T10:14:02.153Z,15.02
2019-03-15T10:19:06.476Z,15.10
2019-03-15T10:24:15.728Z,15.24
2019-03-15T10:29:20.828Z,15.30
2019-03-15T10:34:26.293Z,15.30
2019-03-15T10:39:31.877Z,15.26
2019-03-15T10:44:37.468Z,15.23
2019-03-15T10:49:43.032Z,15.13
2019-03-15T10:54:48.528Z,15.12
2019-03-15T10:59:54.039Z,15.24
2019-03-15T11:04:59.533Z,15.33
2019-03-15T11:10:05.029Z,15.37
2019-03-15T11:15:10.655Z,15.35
2019-03-15T11:20:16.115Z,15.25
2019-03-15T11:25:21.638Z,15.12
2019-03-15T11:30:27.170Z,15.10
2019-03-15T11:35:32.693Z,15.26
2019-03-15T11:40:38.277Z,15.51
2019-03-15T11:45:44.005Z,15.77
2019-03-15T11:50:49.455Z,15.95
2019-03-15T11:55:54.954Z,16.23
2019-03-15T12:01:00.477Z,16.65
2019-03-15T12:06:06.120Z,16.97
2019-03-15T12:11:11.578Z,17.16
2019-03-15T12:16:17.298Z,17.13
2019-03-15T12:21:22.931Z,16.93
2019-03-15T12:26:39.753Z,16.99
2019-03-15T12:31:35.662Z,17.06
2019-03-15T12:36:41.146Z,17.11
2019-03-15T12:41:46.749Z,17.05
2019-03-15T12:46:52.274Z,17.09
2019-03-15T12:51:57.752Z,17.01
2019-03-15T12:57:03.384Z,16.85
2019-03-15T13:02:08.896Z,16.73
2019-03-15T13:07:14.387Z,16.68
2019-03-15T13:12:19.882Z,16.52
2019-03-15T13:17:25.353Z,16.46
2019-03-15T13:22:30.885Z,16.48
2019-03-15T13:27:36.398Z,16.40
2019-03-15T13:32:43.432Z,16.26
2019-03-15T13:37:49.039Z,16.15
2019-03-15T13:42:54.530Z,16.14
2019-03-15T13:48:00.015Z,16.13
2019-03-15T13:53:05.557Z,16.17
2019-03-15T13:58:11.100Z,16.14
2019-03-15T14:03:16.707Z,16.05
2019-03-15T14:08:22.288Z,16.06
2019-03-15T14:13:27.942Z,16.13
2019-03-15T14:18:33.437Z,16.21
2019-03-15T14:23:39.194Z,16.27
2019-03-15T14:28:44.864Z,16.31
2019-03-15T14:33:50.526Z,16.35
2019-03-15T14:38:56.056Z,16.38
2019-03-15T14:44:01.785Z,16.39
2019-03-15T14:49:07.597Z,16.38
2019-03-15T14:54:13.152Z,16.37
2019-03-15T14:59:19.126Z,16.37
2019-03-15T15:04:25.068Z,16.39
2019-03-15T15:09:30.952Z,16.38
2019-03-15T15:14:36.436Z,16.23
2019-03-15T15:19:41.931Z,16.13
2019-03-15T15:24:47.454Z,16.01
2019-03-15T15:29:52.957Z,15.93
2019-03-15T15:34:58.411Z,15.81
2019-03-15T15:40:03.997Z,15.72
2019-03-15T15:45:17.504Z,15.65
2019-03-15T15:50:23.077Z,15.60
2019-03-15T15:55:28.708Z,15.56
2019-03-15T16:00:34.193Z,15.58
2019-03-15T16:05:39.738Z,15.58
2019-03-15T16:10:45.251Z,15.59
2019-03-15T16:15:50.897Z,15.52
2019-03-15T16:20:56.423Z,15.50
2019-03-15T16:26:01.932Z,15.47
2019-03-15T16:31:07.668Z,15.43
2019-03-15T16:36:13.149Z,15.39
2019-03-15T16:41:18.657Z,15.33
2019-03-15T16:46:24.181Z,15.28
2019-03-15T16:51:29.660Z,15.25
2019-03-15T16:56:35.224Z,15.32
2019-03-15T17:01:40.687Z,15.39
2019-03-15T17:06:46.258Z,15.33
2019-03-15T17:11:51.760Z,15.24
2019-03-15T17:16:57.299Z,15.11
2019-03-15T17:22:02.829Z,15.04
2019-03-15T17:27:08.447Z,14.99
2019-03-15T17:32:14.015Z,14.93
2019-03-15T17:37:19.588Z,14.90
2019-03-15T17:42:25.326Z,14.85
2019-03-15T17:47:30.970Z,14.81
2019-03-15T17:52:36.495Z,14.77
2019-03-15T17:57:45.329Z,14.69
2019-03-15T18:02:49.309Z,14.60
2019-03-15T18:07:54.873Z,14.59
2019-03-15T18:13:00.400Z,14.60
2019-03-15T18:18:05.916Z,14.63
2019-03-15T18:23:11.496Z,14.65
2019-03-15T18:28:17.066Z,14.64
2019-03-15T18:33:22.569Z,14.61
2019-03-15T18:38:28.379Z,14.56
2019-03-15T18:43:33.857Z,14.49
2019-03-15T18:48:39.421Z,14.47
2019-03-15T18:53:44.919Z,14.50
2019-03-15T18:58:50.438Z,14.50
2019-03-15T19:03:56.203Z,14.48
2019-03-15T19:09:02.087Z,14.45
2019-03-15T19:14:07.667Z,14.44
2019-03-15T19:19:13.148Z,14.40
2019-03-15T19:24:18.673Z,14.34
2019-03-15T19:29:24.429Z,14.28
2019-03-15T19:34:29.914Z,14.24
2019-03-15T19:39:35.424Z,14.15
2019-03-15T19:44:40.974Z,14.11
2019-03-15T19:49:46.577Z,14.07
2019-03-15T19:55:00.267Z,14.02
2019-03-15T20:00:07.790Z,13.98
2019-03-15T20:05:06.729Z,13.95
2019-03-15T20:10:16.163Z,13.96
2019-03-15T20:15:20.239Z,13.99
2019-03-15T20:20:25.728Z,14.01
2019-03-15T20:25:31.250Z,14.05
2019-03-15T20:30:36.726Z,14.07
2019-03-15T20:35:42.193Z,14.07
2019-03-15T20:40:47.731Z,14.08
2019-03-15T20:45:53.417Z,14.08
2019-03-15T20:50:59.051Z,14.08
2019-03-15T20:56:04.501Z,14.07
2019-03-15T21:01:10.047Z,14.08
2019-03-15T21:06:15.573Z,14.08
2019-03-15T21:11:21.047Z,14.09
2019-03-15T21:16:26.554Z,14.12
2019-03-15T21:21:32.022Z,14.15
2019-03-15T21:26:37.535Z,14.21
2019-03-15T21:31:43.078Z,14.24
2019-03-15T21:36:48.622Z,14.11
2019-03-15T21:41:54.211Z,13.92
2019-03-15T21:46:59.730Z,13.81
2019-03-15T21:52:05.317Z,13.70
2019-03-15T21:57:10.802Z,13.60
2019-03-15T22:02:16.507Z,13.50
2019-03-15T22:07:21.975Z,13.47
2019-03-15T22:12:27.498Z,13.43
2019-03-15T22:17:33.016Z,13.34
2019-03-15T22:22:38.496Z,13.31
2019-03-15T22:27:49.980Z,13.24
2019-03-15T22:32:54.091Z,13.16
2019-03-15T22:37:59.592Z,13.11
2019-03-15T22:43:05.125Z,13.10
2019-03-15T22:48:10.639Z,13.09
2019-03-15T22:53:16.185Z,13.08
2019-03-15T22:58:21.677Z,13.10
2019-03-15T23:03:27.325Z,13.13
2019-03-15T23:08:32.845Z,13.14
2019-03-15T23:13:38.395Z,13.16
2019-03-15T23:18:43.862Z,13.17
2019-03-15T23:23:49.387Z,13.21
2019-03-15T23:28:54.875Z,13.23
2019-03-15T23:34:00.348Z,13.20
2019-03-15T23:39:07.220Z,13.12
2019-03-15T23:44:12.703Z,13.09
2019-03-15T23:49:18.228Z,13.06
2019-03-15T23:54:23.721Z,13.05
2019-03-15T23:59:29.233Z,13.03
